Time;durP1;ratioP1;P1;durP2;ratioP2;P2;SDS_P1;SDS_P2;PMS_P1;PMS_P2;Temp;Humidity;BMP_temperature;BMP_pressure;BME280_temperature;BME280_humidity;BME280_pressure;Samples;Min_cycle;Max_cycle;Signal;HPM_P1;HPM_P2
2022/03/07 00:01:07;;;;;;;7.90;1.90;;;;;;;6.53;100.00;102358.75;5081753;28;20070;-92
2022/03/07 00:03:34;;;;;;;6.65;1.73;;;;;;;6.42;100.00;102337.88;5072246;28;20052;-91
2022/03/07 00:06:01;;;;;;;6.63;1.70;;;;;;;6.27;100.00;102359.47;5071788;28;20071;-91
2022/03/07 00:08:28;;;;;;;11.50;2.92;;;;;;;6.02;100.00;102327.25;5053547;28;20085;-91
2022/03/07 00:11:03;;;;;;;7.85;1.63;;;;;;;5.77;100.00;102326.16;5073639;28;20044;-91
2022/03/07 00:13:29;;;;;;;5.47;1.60;;;;;;;6.21;100.00;102348.16;5092339;28;20047;-91
2022/03/07 00:15:57;;;;;;;10.30;1.92;;;;;;;6.18;100.00;102372.44;5058663;28;20056;-90
2022/03/07 00:18:24;;;;;;;8.20;2.97;;;;;;;5.99;100.00;102326.34;5051450;28;20156;-91
2022/03/07 00:20:51;;;;;;;5.38;1.70;;;;;;;6.15;100.00;102354.19;5060054;28;20415;-91
2022/03/07 00:23:17;;;;;;;6.07;1.90;;;;;;;6.07;100.00;102366.25;5072112;28;20054;-91
2022/03/07 00:25:44;;;;;;;5.75;1.80;;;;;;;5.87;100.00;102348.75;5071337;28;20159;-91
2022/03/07 00:28:11;;;;;;;6.40;1.70;;;;;;;5.74;100.00;102362.53;5060858;28;20064;-92
2022/03/07 00:30:37;;;;;;;8.93;2.30;;;;;;;5.60;100.00;102365.00;5076462;28;20040;-90
2022/03/07 00:33:04;;;;;;;6.35;1.70;;;;;;;5.45;100.00;102349.25;5060746;28;20057;-92
2022/03/07 00:35:31;;;;;;;5.32;1.88;;;;;;;5.31;100.00;102343.91;5067308;28;20128;-92
2022/03/07 00:37:58;;;;;;;7.70;1.60;;;;;;;5.31;100.00;102337.03;5063991;28;20497;-92
2022/03/07 00:40:25;;;;;;;6.35;2.15;;;;;;;5.25;100.00;102354.25;5064329;28;20133;-91
2022/03/07 00:42:51;;;;;;;6.03;1.90;;;;;;;5.02;100.00;102354.00;5079351;28;20041;-91
2022/03/07 00:45:18;;;;;;;8.10;1.70;;;;;;;5.08;100.00;102344.56;5072109;28;20066;-92
2022/03/07 00:47:46;;;;;;;4.35;1.60;;;;;;;5.05;100.00;102361.84;5072362;28;20082;-92
2022/03/07 00:50:12;;;;;;;8.10;2.17;;;;;;;4.72;100.00;102352.78;5064023;28;20057;-92
2022/03/07 00:52:39;;;;;;;4.25;1.77;;;;;;;4.97;100.00;102340.97;5071901;28;20048;-91
2022/03/07 00:55:08;;;;;;;5.80;1.83;;;;;;;5.00;100.00;102356.59;5071712;28;20052;-92
2022/03/07 00:57:35;;;;;;;6.35;1.70;;;;;;;4.83;100.00;102330.41;5071383;28;20055;-92
2022/03/07 01:00:04;;;;;;;4.00;1.52;;;;;;;5.09;100.00;102353.22;5063829;28;20049;-92
2022/03/07 01:02:30;;;;;;;5.82;2.00;;;;;;;4.78;100.00;102355.47;5092088;28;20052;-92
2022/03/07 01:05:00;;;;;;;4.57;1.70;;;;;;;4.81;100.00;102339.91;5093772;28;20052;-92
2022/03/07 01:07:28;;;;;;;6.45;2.00;;;;;;;4.83;100.00;102371.09;5085969;28;20044;-91
2022/03/07 01:09:54;;;;;;;8.60;2.20;;;;;;;4.65;100.00;102348.38;5064728;28;20052;-92
2022/03/07 01:12:21;;;;;;;7.32;1.90;;;;;;;4.57;100.00;102359.53;5086845;28;20090;-92
2022/03/07 01:14:48;;;;;;;6.10;1.80;;;;;;;4.55;100.00;102352.56;5092416;28;20048;-92
2022/03/07 01:17:16;;;;;;;5.63;2.00;;;;;;;4.35;100.00;102342.78;5091757;28;20402;-91
2022/03/07 01:19:43;;;;;;;8.02;2.20;;;;;;;4.29;100.00;102347.03;5092155;28;20060;-92
2022/03/07 01:22:10;;;;;;;6.22;1.73;;;;;;;4.61;100.00;102352.66;5088061;28;20135;-91
2022/03/07 01:24:37;;;;;;;7.05;1.83;;;;;;;4.19;100.00;102339.09;5079056;28;20485;-91
2022/03/07 01:27:04;;;;;;;5.20;1.42;;;;;;;4.49;100.00;102355.09;5070816;28;20409;-92
2022/03/07 01:29:31;;;;;;;6.00;2.00;;;;;;;4.18;100.00;102341.69;5087746;28;20059;-91
2022/03/07 01:31:58;;;;;;;5.88;1.90;;;;;;;4.02;100.00;102312.09;5075713;28;20045;-92
2022/03/07 01:34:24;;;;;;;8.18;2.17;;;;;;;4.16;100.00;102356.34;5072005;28;20052;-91
2022/03/07 01:36:51;;;;;;;6.97;2.03;;;;;;;4.12;100.00;102326.03;5072118;28;20053;-91
2022/03/07 01:39:18;;;;;;;5.05;1.83;;;;;;;4.00;100.00;102334.50;5068684;28;20124;-91
2022/03/07 01:41:45;;;;;;;7.07;1.90;;;;;;;3.94;100.00;102337.00;5065027;28;20048;-90
2022/03/07 01:44:20;;;;;;;7.15;1.90;;;;;;;4.02;100.00;102340.59;5070302;28;20486;-88
2022/03/07 01:46:48;;;;;;;4.38;1.70;;;;;;;3.90;100.00;102332.63;5074086;28;20047;-90
2022/03/07 01:49:15;;;;;;;4.90;1.90;;;;;;;3.68;100.00;102282.19;5091403;28;20110;-92
2022/03/07 01:51:43;;;;;;;9.00;1.92;;;;;;;3.99;100.00;102337.94;5078171;28;20067;-91
2022/03/07 01:54:14;;;;;;;5.22;1.88;;;;;;;3.37;100.00;102282.56;5071144;28;20482;-90
2022/03/07 01:56:42;;;;;;;4.03;1.60;;;;;;;3.58;100.00;102299.31;5072048;28;20049;-91
2022/03/07 01:59:11;;;;;;;8.02;3.05;;;;;;;3.66;100.00;102291.66;5070503;28;20055;-91
2022/03/07 02:01:39;;;;;;;6.88;1.95;;;;;;;3.70;100.00;102309.88;5068102;28;20048;-90
2022/03/07 02:04:07;;;;;;;6.47;1.80;;;;;;;3.72;100.00;102315.06;5073382;28;20078;-91
2022/03/07 02:06:34;;;;;;;7.22;1.90;;;;;;;3.73;100.00;102306.44;5074540;28;20101;-90
2022/03/07 02:09:01;;;;;;;6.88;1.80;;;;;;;3.64;100.00;102298.53;5059821;28;20131;-91
2022/03/07 02:11:28;;;;;;;6.93;1.70;;;;;;;3.49;100.00;102281.91;5065830;28;20405;-91
2022/03/07 02:13:54;;;;;;;7.78;1.85;;;;;;;3.57;100.00;102287.19;5068880;28;20041;-91
2022/03/07 02:16:21;;;;;;;5.50;1.65;;;;;;;3.63;100.00;102260.50;5054217;28;20049;-90
2022/03/07 02:18:48;;;;;;;4.68;1.77;;;;;;;3.50;100.00;102262.91;5054402;28;20052;-90
2022/03/07 02:21:17;;;;;;;6.80;1.98;;;;;;;3.57;100.00;102276.84;5065486;28;20058;-91
2022/03/07 02:23:45;;;;;;;5.28;1.80;;;;;;;3.66;100.00;102282.16;5075364;28;20047;-91
2022/03/07 02:26:17;;;;;;;10.18;2.00;;;;;;;3.50;100.00;102241.31;5074308;28;20060;-90
2022/03/07 02:28:46;;;;;;;7.70;1.67;;;;;;;3.74;100.00;102279.69;5070775;28;20049;-91
2022/03/07 02:31:18;;;;;;;6.47;2.00;;;;;;;3.28;100.00;102246.16;5074749;28;20062;-90
2022/03/07 02:33:46;;;;;;;5.88;2.00;;;;;;;3.21;100.00;102237.41;5074870;28;20129;-92
2022/03/07 02:36:12;;;;;;;6.20;2.00;;;;;;;3.29;100.00;102241.84;5074648;28;20084;-91
2022/03/07 02:38:39;;;;;;;6.40;1.73;;;;;;;3.12;100.00;102231.22;5057865;28;20053;-92
2022/03/07 02:41:06;;;;;;;7.50;1.80;;;;;;;3.35;100.00;102252.31;5079648;28;20044;-92
2022/03/07 02:43:33;;;;;;;5.45;1.80;;;;;;;3.29;100.00;102223.72;5092763;28;20531;-91
2022/03/07 02:46:01;;;;;;;7.63;1.90;;;;;;;3.17;100.00;102204.56;5074521;28;20146;-92
2022/03/07 02:48:28;;;;;;;6.78;2.10;;;;;;;3.14;100.00;102195.88;5060863;28;20049;-92
2022/03/07 02:50:57;;;;;;;6.13;2.08;;;;;;;3.34;100.00;102229.84;5074187;28;20045;-91
2022/03/07 02:53:25;;;;;;;4.68;2.03;;;;;;;3.09;100.00;102182.84;5074381;28;20509;-91
2022/03/07 02:55:53;;;;;;;3.58;1.60;;;;;;;2.96;100.00;102155.06;5074477;28;20088;-91
2022/03/07 02:58:20;;;;;;;4.72;1.80;;;;;;;3.55;100.00;102208.59;5074860;28;20049;-91
2022/03/07 03:00:47;;;;;;;7.43;2.10;;;;;;;3.48;100.00;102233.53;5072650;28;20058;-92
2022/03/07 03:03:14;;;;;;;5.80;1.77;;;;;;;2.89;100.00;102164.41;5075798;28;20546;-92
2022/03/07 03:05:41;;;;;;;10.15;2.40;;;;;;;2.67;100.00;102183.84;5074621;28;20053;-89
2022/03/07 03:08:08;;;;;;;7.57;1.83;;;;;;;3.19;100.00;102231.34;5074651;28;20146;-91
2022/03/07 03:10:34;;;;;;;7.70;1.95;;;;;;;2.94;100.00;102195.53;5079399;28;20386;-92
2022/03/07 03:13:01;;;;;;;5.65;2.10;;;;;;;2.72;100.00;102146.00;5094472;28;20485;-91
2022/03/07 03:15:28;;;;;;;6.07;1.88;;;;;;;3.26;100.00;102223.66;5094620;28;20051;-91
2022/03/07 03:17:55;;;;;;;7.45;1.88;;;;;;;2.76;100.00;102184.03;5094194;28;20056;-91
2022/03/07 03:20:22;;;;;;;5.60;1.73;;;;;;;2.90;100.00;102192.00;5093976;28;20052;-91
2022/03/07 03:22:48;;;;;;;8.40;2.10;;;;;;;2.90;100.00;102209.25;5093393;28;20508;-92
2022/03/07 03:25:15;;;;;;;4.57;1.70;;;;;;;2.72;100.00;102165.84;5087595;28;20076;-91
2022/03/07 03:27:42;;;;;;;7.10;1.90;;;;;;;2.72;100.00;102160.66;5073649;28;20049;-91
2022/03/07 03:30:11;;;;;;;7.45;1.90;;;;;;;2.91;100.00;102170.47;5073533;28;20048;-91
2022/03/07 03:32:38;;;;;;;8.68;2.15;;;;;;;3.08;100.00;102199.25;5090250;28;20139;-92
2022/03/07 03:35:06;;;;;;;5.40;1.83;;;;;;;2.65;100.00;102120.88;5072189;28;20137;-92
2022/03/07 03:37:33;;;;;;;9.10;2.33;;;;;;;2.80;100.00;102153.91;5053068;28;20136;-91
2022/03/07 03:39:59;;;;;;;5.75;1.90;;;;;;;3.18;100.00;102187.31;5057337;28;20045;-90
2022/03/07 03:42:26;;;;;;;10.02;1.98;;;;;;;2.82;100.00;102147.91;5065261;28;20052;-89
2022/03/07 03:44:53;;;;;;;6.90;2.30;;;;;;;2.71;100.00;102135.63;5062130;28;20041;-91
2022/03/07 03:47:20;;;;;;;5.75;2.10;;;;;;;3.01;100.00;102172.38;5072965;28;20123;-92
2022/03/07 03:49:46;;;;;;;6.63;1.73;;;;;;;2.59;100.00;102106.13;5073067;28;20139;-91
2022/03/07 03:52:13;;;;;;;6.43;2.15;;;;;;;3.02;100.00;102156.00;5088657;28;20074;-91
2022/03/07 03:54:40;;;;;;;5.10;1.95;;;;;;;2.92;100.00;102142.88;5093054;28;20040;-91
2022/03/07 03:57:07;;;;;;;8.07;1.95;;;;;;;2.85;100.00;102147.06;5084686;28;20398;-91
2022/03/07 03:59:34;;;;;;;5.88;2.15;;;;;;;2.87;100.00;102154.88;5066810;28;20049;-91
2022/03/07 04:02:04;;;;;;;4.68;1.77;;;;;;;2.85;100.00;102144.50;5079975;28;20063;-91
2022/03/07 04:04:32;;;;;;;5.70;2.08;;;;;;;3.05;100.00;102150.00;5072721;28;20542;-92
2022/03/07 04:06:59;;;;;;;5.30;1.88;;;;;;;2.75;100.00;102104.69;5090103;28;20604;-92
2022/03/07 04:09:29;;;;;;;6.40;1.88;;;;;;;2.93;100.00;102119.63;5074499;28;20056;-92
2022/03/07 04:11:56;;;;;;;5.55;1.85;;;;;;;3.14;100.00;102152.75;5069362;28;20395;-92
2022/03/07 04:14:23;;;;;;;5.70;2.15;;;;;;;2.85;100.00;102114.34;5053139;28;20049;-92
2022/03/07 04:16:53;;;;;;;10.50;2.15;;;;;;;2.87;100.00;102108.31;5070161;28;20500;-92
2022/03/07 04:19:20;;;;;;;4.10;1.73;;;;;;;3.09;100.00;102146.63;5072676;28;20130;-92
2022/03/07 04:21:47;;;;;;;8.77;2.22;;;;;;;2.82;100.00;102134.97;5089652;28;20478;-92
2022/03/07 04:24:15;;;;;;;4.30;1.60;;;;;;;2.87;100.00;102149.69;5090817;28;20549;-93
2022/03/07 04:26:42;;;;;;;5.28;1.70;;;;;;;2.82;100.00;102137.56;5073069;28;20470;-93
2022/03/07 04:29:10;;;;;;;5.85;2.35;;;;;;;2.81;100.00;102098.72;5072978;28;20139;-92
2022/03/07 04:31:41;;;;;;;4.90;1.67;;;;;;;2.63;100.00;102094.13;5080126;28;20058;-92
2022/03/07 04:34:09;;;;;;;11.13;2.33;;;;;;;2.84;100.00;102138.47;5052612;28;20056;-92
2022/03/07 04:36:38;;;;;;;5.47;1.83;;;;;;;2.53;100.00;102099.97;5052754;28;20048;-92
2022/03/07 04:39:07;;;;;;;7.03;1.83;;;;;;;2.49;100.00;102099.06;5071208;28;20048;-91
2022/03/07 04:41:34;;;;;;;7.60;2.83;;;;;;;2.57;100.00;102143.16;5096292;28;20062;-92
2022/03/07 04:44:02;;;;;;;7.28;2.15;;;;;;;2.89;100.00;102127.34;5092035;28;20044;-92
2022/03/07 04:46:30;;;;;;;5.68;1.92;;;;;;;2.52;100.00;102088.78;5084677;28;20055;-91
2022/03/07 04:48:58;;;;;;;5.93;1.90;;;;;;;2.62;100.00;102089.78;5072295;28;20135;-92
2022/03/07 04:51:25;;;;;;;6.63;2.22;;;;;;;2.23;100.00;102054.66;5080556;28;20512;-88
2022/03/07 04:53:51;;;;;;;5.93;2.00;;;;;;;2.64;100.00;102122.59;5092671;28;20131;-89
2022/03/07 04:56:18;;;;;;;8.15;2.20;;;;;;;2.74;100.00;102125.34;5068287;28;20055;-88
2022/03/07 04:58:45;;;;;;;7.63;1.90;;;;;;;2.93;100.00;102121.34;5051163;28;20045;-89
2022/03/07 05:01:14;;;;;;;6.68;1.83;;;;;;;2.99;100.00;102100.75;5071951;28;20130;-89
2022/03/07 05:03:41;;;;;;;6.80;2.40;;;;;;;2.73;100.00;102088.28;5092868;28;20055;-90
2022/03/07 05:06:11;;;;;;;5.90;3.05;;;;;;;2.93;100.00;102108.41;5091553;28;20775;-90
2022/03/07 05:08:38;;;;;;;7.43;1.77;;;;;;;2.99;100.00;102118.84;5089842;28;20051;-91
2022/03/07 05:11:05;;;;;;;9.15;2.78;;;;;;;2.97;100.00;102110.19;5074164;28;20048;-92
2022/03/07 05:13:33;;;;;;;7.10;2.25;;;;;;;2.91;100.00;102115.28;5071275;28;20067;-91
2022/03/07 05:15:59;;;;;;;9.35;2.40;;;;;;;3.13;100.00;102100.94;5071764;28;20162;-92
2022/03/07 05:18:26;;;;;;;13.68;3.75;;;;;;;2.85;100.00;102095.34;5071616;28;20135;-91
2022/03/07 05:20:53;;;;;;;11.23;2.30;;;;;;;2.83;100.00;102112.56;5068285;28;20045;-91
2022/03/07 05:23:23;;;;;;;8.70;3.30;;;;;;;2.62;100.00;102115.66;5072392;28;20048;-92
2022/03/07 05:25:50;;;;;;;8.50;2.28;;;;;;;2.24;100.00;102070.19;5072132;28;20049;-92
2022/03/07 05:28:17;;;;;;;6.43;1.92;;;;;;;2.77;100.00;102136.63;5072401;28;20108;-92
2022/03/07 05:30:44;;;;;;;5.30;1.98;;;;;;;2.74;100.00;102120.16;5071595;28;20131;-93
2022/03/07 05:33:11;;;;;;;8.15;2.30;;;;;;;2.76;100.00;102137.47;5075065;28;20049;-92
2022/03/07 05:35:38;;;;;;;7.32;2.40;;;;;;;2.46;100.00;102091.25;5078674;28;20398;-92
2022/03/07 05:38:04;;;;;;;7.65;2.00;;;;;;;2.62;100.00;102103.63;5076313;28;20137;-91
2022/03/07 05:40:32;;;;;;;10.73;3.28;;;;;;;2.67;100.00;102124.34;5075582;28;20537;-91
2022/03/07 05:42:58;;;;;;;6.38;2.15;;;;;;;2.65;100.00;102111.41;5070003;28;20055;-91
2022/03/07 05:45:25;;;;;;;7.47;2.42;;;;;;;2.68;100.00;102108.00;5064483;28;20051;-92
2022/03/07 05:47:52;;;;;;;6.40;2.08;;;;;;;2.78;100.00;102114.19;5064409;28;20499;-92
2022/03/07 05:50:19;;;;;;;8.68;2.33;;;;;;;2.88;100.00;102121.28;5075485;28;20045;-91
2022/03/07 05:52:46;;;;;;;9.60;2.67;;;;;;;2.42;100.00;102099.78;5070703;28;20131;-92
2022/03/07 05:55:13;;;;;;;5.82;2.22;;;;;;;2.46;100.00;102120.56;5071067;28;20049;-92
2022/03/07 05:57:39;;;;;;;6.43;2.35;;;;;;;2.41;100.00;102100.66;5062296;28;20060;-93
2022/03/07 06:00:09;;;;;;;8.77;2.17;;;;;;;2.51;100.00;102104.25;5073183;28;20140;-92
2022/03/07 06:02:36;;;;;;;7.28;2.55;;;;;;;2.55;100.00;102112.09;5077592;28;20119;-91
2022/03/07 06:05:03;;;;;;;6.85;2.65;;;;;;;2.44;100.00;102095.50;5073608;28;20482;-91
2022/03/07 06:07:30;;;;;;;8.10;1.90;;;;;;;2.65;100.00;102123.47;5065579;28;20123;-91
2022/03/07 06:09:57;;;;;;;5.13;2.08;;;;;;;2.22;100.00;102065.84;5071907;28;20055;-90
2022/03/07 06:12:26;;;;;;;6.38;2.22;;;;;;;2.45;100.00;102097.28;5081310;28;20459;-91
2022/03/07 06:14:54;;;;;;;8.32;2.20;;;;;;;2.44;100.00;102118.78;5082073;28;20037;-90
2022/03/07 06:17:21;;;;;;;6.65;2.40;;;;;;;2.44;100.00;102119.69;5074690;28;20053;-91
2022/03/07 06:19:50;;;;;;;9.85;2.42;;;;;;;2.29;100.00;102098.72;5054957;28;20060;-90
2022/03/07 06:22:17;;;;;;;7.15;2.38;;;;;;;2.22;100.00;102089.09;5076537;28;20050;-91
2022/03/07 06:24:44;;;;;;;7.35;2.40;;;;;;;2.19;100.00;102091.63;5071540;28;20048;-91
2022/03/07 06:27:11;;;;;;;9.52;2.85;;;;;;;2.14;100.00;102106.16;5062909;28;20048;-91
2022/03/07 06:29:37;;;;;;;8.10;2.83;;;;;;;2.11;100.00;102075.97;5067623;28;20523;-91
2022/03/07 06:32:05;;;;;;;9.35;2.47;;;;;;;2.43;100.00;102086.91;5076852;28;20132;-91
2022/03/07 06:34:33;;;;;;;6.30;2.15;;;;;;;2.67;100.00;102090.75;5069896;28;20045;-90
2022/03/07 06:37:01;;;;;;;13.43;3.40;;;;;;;2.64;100.00;102101.91;5071931;28;20052;-89
2022/03/07 06:39:28;;;;;;;7.65;2.55;;;;;;;2.68;100.00;102100.25;5080670;28;20681;-89
2022/03/07 06:41:55;;;;;;;8.93;2.70;;;;;;;2.70;100.00;102089.94;5072404;28;20052;-90
2022/03/07 06:44:23;;;;;;;10.93;2.65;;;;;;;2.74;100.00;102084.81;5067999;28;20461;-89
2022/03/07 06:46:50;;;;;;;11.55;2.63;;;;;;;2.75;100.00;102089.16;5072884;28;20502;-89
2022/03/07 06:49:17;;;;;;;9.32;2.40;;;;;;;2.76;100.00;102088.34;5069130;28;20403;-90
2022/03/07 06:51:44;;;;;;;8.48;2.80;;;;;;;2.92;100.00;102093.72;5074674;28;20058;-88
2022/03/07 06:54:11;;;;;;;8.10;2.78;;;;;;;2.92;100.00;102099.78;5073115;28;20045;-89
2022/03/07 06:56:38;;;;;;;12.80;4.15;;;;;;;2.73;100.00;102114.13;5064320;28;20055;-90
2022/03/07 06:59:05;;;;;;;7.10;2.83;;;;;;;2.69;100.00;102067.50;5072497;28;20136;-91
2022/03/07 07:01:32;;;;;;;9.57;2.60;;;;;;;2.97;100.00;102092.09;5074529;28;20095;-91
2022/03/07 07:03:59;;;;;;;13.05;3.00;;;;;;;2.69;100.00;102077.84;5069390;28;20051;-89
2022/03/07 07:06:25;;;;;;;7.22;2.63;;;;;;;2.87;100.00;102069.50;5073673;28;20141;-90
2022/03/07 07:08:52;;;;;;;8.00;2.65;;;;;;;2.68;100.00;102061.47;5071991;28;20052;-89
2022/03/07 07:11:19;;;;;;;9.48;3.55;;;;;;;2.47;100.00;102051.63;5071741;28;20135;-89
2022/03/07 07:13:46;;;;;;;9.80;3.10;;;;;;;2.79;100.00;102083.19;5068939;28;20115;-89
2022/03/07 07:16:13;;;;;;;14.38;3.83;;;;;;;2.12;100.00;102020.84;5062857;28;20049;-88
2022/03/07 07:18:41;;;;;;;16.30;3.75;;;;;;;2.79;100.00;102069.38;5064198;28;20468;-88
2022/03/07 07:21:11;;;;;;;10.40;3.53;;;;;;;2.85;100.00;102051.38;5061880;28;20055;-88
2022/03/07 07:23:38;;;;;;;11.05;3.45;;;;;;;3.12;100.00;102042.28;5066658;28;20072;-87
2022/03/07 07:26:06;;;;;;;22.98;4.80;;;;;;;2.93;100.00;102021.31;5068709;28;20059;-88
2022/03/07 07:28:35;;;;;;;10.55;2.88;;;;;;;3.37;100.00;102046.94;5069318;28;20414;-86
2022/03/07 07:31:02;;;;;;;10.32;3.00;;;;;;;3.78;100.00;102088.03;5073341;28;20049;-89
2022/03/07 07:33:29;;;;;;;8.77;2.92;;;;;;;3.80;100.00;102080.28;5071258;28;20044;-90
2022/03/07 07:35:56;;;;;;;11.60;3.10;;;;;;;3.85;100.00;102081.22;5070360;28;20528;-88
2022/03/07 07:38:23;;;;;;;10.38;3.00;;;;;;;3.82;100.00;102078.56;5068583;28;20056;-87
2022/03/07 07:40:49;;;;;;;12.82;3.10;;;;;;;3.63;100.00;102084.38;5070835;28;20059;-88
2022/03/07 07:43:17;;;;;;;9.23;2.88;;;;;;;4.14;100.00;102073.78;5069852;28;20462;-89
2022/03/07 07:45:45;;;;;;;15.35;4.18;;;;;;;4.57;100.00;102071.56;5065640;28;20041;-89
2022/03/07 07:48:12;;;;;;;13.38;3.63;;;;;;;4.86;100.00;102078.72;5071077;28;20052;-88
2022/03/07 07:50:39;;;;;;;10.27;3.08;;;;;;;4.65;100.00;102061.25;5072689;28;20044;-88
2022/03/07 07:53:06;;;;;;;7.75;3.03;;;;;;;4.75;100.00;102067.41;5066221;28;20132;-89
2022/03/07 07:55:33;;;;;;;9.60;2.80;;;;;;;5.00;100.00;102045.06;5072635;28;20051;-90
2022/03/07 07:58:00;;;;;;;19.40;3.63;;;;;;;4.89;100.00;102070.09;5072163;28;20063;-89
2022/03/07 08:00:27;;;;;;;4.93;2.25;;;;;;;5.65;100.00;102064.47;5074970;28;20055;-89
2022/03/07 08:02:54;;;;;;;8.60;2.92;;;;;;;5.37;100.00;102044.44;5062750;28;20136;-89
2022/03/07 08:05:21;;;;;;;10.43;4.43;;;;;;;5.64;100.00;102061.88;5068457;28;20040;-89
2022/03/07 08:07:48;;;;;;;9.75;2.85;;;;;;;5.68;100.00;102063.59;5072808;28;20048;-89
2022/03/07 08:10:17;;;;;;;9.63;3.53;;;;;;;6.03;100.00;102071.53;5072472;28;20048;-89
2022/03/07 08:12:45;;;;;;;9.23;3.55;;;;;;;6.11;100.00;102053.38;5072201;28;20152;-88
2022/03/07 08:15:17;;;;;;;13.73;4.30;;;;;;;6.18;100.00;102057.72;5071293;28;20054;-88
2022/03/07 08:17:46;;;;;;;14.57;4.20;;;;;;;6.62;100.00;102059.50;5065957;28;20083;-88
2022/03/07 08:20:13;;;;;;;17.10;3.70;;;;;;;6.63;100.00;102045.59;5052639;28;20049;-89
2022/03/07 08:22:42;;;;;;;12.45;2.95;;;;;;;6.90;100.00;102064.69;5073663;28;20080;-89
2022/03/07 08:25:10;;;;;;;9.63;3.22;;;;;;;7.18;100.00;102052.47;5070561;28;20131;-89
2022/03/07 08:27:37;;;;;;;15.70;4.05;;;;;;;7.81;100.00;102056.59;5070048;28;20053;-89
2022/03/07 08:30:09;;;;;;;12.57;5.20;;;;;;;7.14;96.16;102071.59;5068469;28;20770;-89
2022/03/07 08:32:37;;;;;;;10.10;3.40;;;;;;;7.42;96.62;102074.16;5089189;28;20428;-89
2022/03/07 08:35:05;;;;;;;9.38;3.00;;;;;;;7.28;96.14;102063.75;5071410;28;20055;-88
2022/03/07 08:37:39;;;;;;;10.77;3.20;;;;;;;7.19;92.98;102067.25;5072208;28;20143;-88
2022/03/07 08:40:08;;;;;;;9.05;3.42;;;;;;;7.64;92.48;102072.31;5074711;28;20045;-90
2022/03/07 08:42:35;;;;;;;8.75;2.50;;;;;;;6.81;98.19;102073.34;5064180;28;20040;-91
2022/03/07 08:45:04;;;;;;;10.45;2.97;;;;;;;6.84;96.98;102086.38;5071886;28;20050;-91
2022/03/07 08:47:31;;;;;;;9.18;2.65;;;;;;;7.14;99.30;102086.38;5080302;28;20040;-90
2022/03/07 08:49:57;;;;;;;11.10;2.75;;;;;;;6.58;98.42;102096.78;5068951;28;20075;-91
2022/03/07 08:52:24;;;;;;;10.90;3.08;;;;;;;6.60;99.43;102082.03;5073777;28;20409;-91
2022/03/07 08:54:51;;;;;;;7.07;2.22;;;;;;;7.26;98.38;102086.34;5070243;28;20041;-91
2022/03/07 08:57:18;;;;;;;7.88;2.00;;;;;;;7.74;94.44;102087.06;5065376;28;20052;-91
2022/03/07 08:59:45;;;;;;;6.75;2.13;;;;;;;7.70;94.14;102077.53;5069764;28;20059;-91
2022/03/07 09:02:12;;;;;;;12.77;3.70;;;;;;;7.57;88.51;102084.50;5073210;28;20059;-90
2022/03/07 09:04:42;;;;;;;10.98;2.88;;;;;;;7.57;92.17;102075.81;5069046;28;20045;-91
2022/03/07 09:07:09;;;;;;;9.00;1.95;;;;;;;7.73;92.89;102058.38;5071020;28;20075;-91
2022/03/07 09:09:36;;;;;;;15.60;2.55;;;;;;;7.73;88.62;102038.38;5067906;28;20048;-91
2022/03/07 09:12:04;;;;;;;8.90;2.20;;;;;;;8.14;87.82;102058.16;5071008;28;20071;-90
2022/03/07 09:14:31;;;;;;;7.63;2.20;;;;;;;7.88;85.73;102060.91;5070665;28;20057;-91
2022/03/07 09:16:58;;;;;;;8.77;2.25;;;;;;;7.63;87.99;102060.13;5069748;28;20055;-92
2022/03/07 09:19:25;;;;;;;8.00;2.33;;;;;;;7.20;89.20;102034.25;5078438;28;20049;-92
2022/03/07 09:21:53;;;;;;;7.70;2.60;;;;;;;7.37;90.29;102076.75;5077292;28;20174;-92
2022/03/07 09:24:20;;;;;;;9.85;2.17;;;;;;;7.77;88.92;102070.50;5077595;28;20090;-93
2022/03/07 09:26:47;;;;;;;9.10;2.88;;;;;;;7.38;88.46;102048.94;5072348;28;20139;-90
2022/03/07 09:29:14;;;;;;;12.85;2.50;;;;;;;7.34;89.87;102063.72;5075471;28;20061;-91
2022/03/07 09:31:41;;;;;;;9.52;2.42;;;;;;;7.38;89.36;102056.75;5063404;28;20153;-90
2022/03/07 09:34:10;;;;;;;7.80;2.35;;;;;;;7.75;87.15;102065.31;5058101;28;20498;-88
2022/03/07 09:36:37;;;;;;;8.93;2.30;;;;;;;7.55;89.46;102051.50;5070292;28;20068;-91
2022/03/07 09:39:05;;;;;;;12.00;3.60;;;;;;;7.53;89.19;102064.53;5071301;28;20048;-90
2022/03/07 09:41:32;;;;;;;6.88;2.00;;;;;;;7.77;88.87;102036.63;5075966;28;20052;-91
2022/03/07 09:43:59;;;;;;;10.43;2.13;;;;;;;7.77;86.73;102006.22;5069927;28;20090;-90
2022/03/07 09:46:26;;;;;;;10.32;2.65;;;;;;;7.76;86.26;101993.19;5070322;28;20041;-90
2022/03/07 09:48:54;;;;;;;7.60;2.00;;;;;;;7.81;86.71;102046.19;5070338;28;20447;-90
2022/03/07 09:51:21;;;;;;;7.93;1.90;;;;;;;7.26;88.98;102043.78;5073527;28;20045;-91
2022/03/07 09:53:48;;;;;;;9.63;2.25;;;;;;;7.55;87.57;102022.84;5069619;28;20074;-90
2022/03/07 09:56:15;;;;;;;9.02;2.58;;;;;;;7.89;87.84;102035.69;5081248;28;20135;-90
2022/03/07 09:58:42;;;;;;;11.95;2.83;;;;;;;7.50;88.81;102019.38;5082685;28;20145;-90
2022/03/07 10:01:13;;;;;;;11.07;2.53;;;;;;;7.67;88.52;102038.41;5072034;28;20050;-91
2022/03/07 10:03:47;;;;;;;9.85;2.25;;;;;;;8.29;87.73;102030.22;5070612;28;20112;-90
2022/03/07 10:06:17;;;;;;;6.82;2.00;;;;;;;8.26;87.81;102049.38;5069228;28;20048;-90
2022/03/07 10:08:56;;;;;;;9.25;2.17;;;;;;;8.64;85.58;102044.75;5071014;28;20052;-91
2022/03/07 10:11:24;;;;;;;11.27;3.78;;;;;;;8.66;84.53;102043.88;5080585;28;20055;-90
2022/03/07 10:13:58;;;;;;;9.77;2.30;;;;;;;8.81;83.97;102042.00;5073950;28;20051;-91
2022/03/07 10:16:43;;;;;;;13.45;2.55;;;;;;;8.52;86.10;102017.03;5069848;28;20048;-91
2022/03/07 10:19:13;;;;;;;9.18;2.55;;;;;;;9.43;82.10;102034.38;5067945;28;20051;-91
2022/03/07 10:21:50;;;;;;;8.07;2.50;;;;;;;9.02;79.84;102025.25;5089791;28;20509;-90
2022/03/07 10:24:18;;;;;;;11.13;2.20;;;;;;;9.15;79.57;102024.22;5065615;28;20055;-91
2022/03/07 10:26:46;;;;;;;12.27;2.60;;;;;;;9.05;80.22;102022.63;5083285;28;20047;-91
2022/03/07 10:29:13;;;;;;;8.88;2.75;;;;;;;8.68;79.69;102007.31;5083408;28;20054;-89
2022/03/07 10:31:56;;;;;;;;;;;;;;;9.24;77.16;102004.97;5080737;28;20055;-91
2022/03/07 10:34:25;;;;;;;9.68;2.30;;;;;;;9.36;77.38;102017.03;5082571;28;19920;-89
2022/03/07 10:36:53;;;;;;;9.40;2.08;;;;;;;9.46;76.72;102008.19;5080379;28;20045;-91
2022/03/07 10:39:25;;;;;;;9.20;2.05;;;;;;;9.50;75.84;102004.66;5089821;28;20052;-91
2022/03/07 10:41:53;;;;;;;10.20;2.35;;;;;;;9.35;75.61;102010.94;5079395;28;20115;-91
2022/03/07 10:44:32;;;;;;;7.25;2.22;;;;;;;9.45;76.48;102023.00;5080912;28;20156;-93
2022/03/07 10:47:19;;;;;;;10.32;2.17;;;;;;;9.37;76.22;102006.56;5071912;28;20076;-93
2022/03/07 10:49:52;;;;;;;8.57;2.20;;;;;;;9.19;76.41;102005.03;5074262;28;20131;-93
2022/03/07 10:52:20;;;;;;;8.13;1.98;;;;;;;9.16;76.59;101991.16;5073027;28;20044;-94
2022/03/07 10:54:49;;;;;;;8.02;2.22;;;;;;;9.21;75.61;102010.25;5074959;28;20536;-93
2022/03/07 10:57:18;;;;;;;12.25;2.20;;;;;;;9.34;76.01;102009.22;5075220;28;20084;-91
2022/03/07 10:59:45;;;;;;;11.52;2.88;;;;;;;9.39;75.90;101999.56;5075693;28;20048;-93
2022/03/07 11:02:14;;;;;;;9.77;2.05;;;;;;;9.40;75.12;102008.25;5083313;28;20135;-92
2022/03/07 11:04:43;;;;;;;11.90;3.92;;;;;;;9.21;77.92;101989.34;5085354;28;20059;-93
2022/03/07 11:07:09;;;;;;;8.57;2.00;;;;;;;9.45;78.34;101990.78;5080568;28;20391;-91
2022/03/07 11:09:36;;;;;;;7.75;2.53;;;;;;;9.26;78.08;102000.59;5081958;28;20057;-92
2022/03/07 11:12:05;;;;;;;12.02;2.78;;;;;;;9.28;79.32;102002.31;5088117;28;20051;-91
2022/03/07 11:14:35;;;;;;;9.10;3.38;;;;;;;9.13;79.45;102010.31;5080819;28;20134;-91
2022/03/07 11:17:02;;;;;;;9.52;2.58;;;;;;;9.49;79.72;102013.38;5082680;28;20488;-90
2022/03/07 11:19:28;;;;;;;8.13;2.28;;;;;;;9.77;77.90;102006.03;5081887;28;20044;-90
2022/03/07 11:21:56;;;;;;;8.73;2.20;;;;;;;9.47;76.18;102010.81;5084432;28;20050;-89
2022/03/07 11:24:26;;;;;;;14.90;2.83;;;;;;;9.12;76.93;102001.63;5081454;28;20051;-91
2022/03/07 11:26:55;;;;;;;8.68;2.45;;;;;;;9.17;78.20;102012.03;5084349;28;20044;-89
2022/03/07 11:29:34;;;;;;;9.85;2.65;;;;;;;9.26;78.99;102008.41;5091608;28;20052;-90